createdAt,value
2023-02-08T00:01:09.032Z,22.93
2023-02-08T00:03:37.004Z,20.23
2023-02-08T00:06:05.391Z,21.13
2023-02-08T00:08:33.866Z,20.07
2023-02-08T00:11:02.651Z,18.97
2023-02-08T00:13:32.018Z,19.47
2023-02-08T00:15:59.928Z,19.83
2023-02-08T00:18:27.848Z,21.10
2023-02-08T00:20:57.288Z,19.43
2023-02-08T00:23:25.493Z,21.30
2023-02-08T00:25:53.392Z,20.70
2023-02-08T00:28:21.339Z,19.67
2023-02-08T00:30:50.821Z,19.57
2023-02-08T00:33:18.691Z,18.53
2023-02-08T00:35:46.602Z,22.13
2023-02-08T00:38:14.518Z,22.37
2023-02-08T00:40:42.649Z,20.90
2023-02-08T00:43:10.755Z,21.80
2023-02-08T00:45:38.634Z,22.47
2023-02-08T00:48:07.911Z,22.53
2023-02-08T00:50:35.831Z,20.97
2023-02-08T00:53:03.727Z,20.13
2023-02-08T00:55:31.619Z,24.30
2023-02-08T00:57:59.505Z,23.00
2023-02-08T01:00:27.438Z,22.30
2023-02-08T01:02:55.322Z,24.67
2023-02-08T01:05:24.562Z,20.77
2023-02-08T01:07:52.455Z,22.07
2023-02-08T01:10:20.587Z,22.17
2023-02-08T01:12:48.453Z,19.47
2023-02-08T01:15:16.501Z,23.07
2023-02-08T01:17:44.345Z,22.50
2023-02-08T01:20:13.052Z,22.43
2023-02-08T01:22:42.317Z,21.43
2023-02-08T01:25:10.397Z,20.13
2023-02-08T01:27:38.329Z,18.73
2023-02-08T01:30:07.281Z,19.97
2023-02-08T01:32:35.178Z,19.27
2023-02-08T01:35:03.131Z,20.07
2023-02-08T01:37:31.072Z,19.00
2023-02-08T01:40:00.344Z,21.80
2023-02-08T01:42:28.406Z,20.40
2023-02-08T01:45:31.092Z,19.33
2023-02-08T01:48:08.032Z,20.50
2023-02-08T01:50:43.373Z,18.97
2023-02-08T01:53:12.319Z,18.37
2023-02-08T01:55:47.235Z,20.83
2023-02-08T01:58:16.076Z,21.73
2023-02-08T02:00:44.063Z,20.33
2023-02-08T02:03:12.182Z,19.27
2023-02-08T02:05:44.546Z,18.90
2023-02-08T02:08:13.927Z,20.60
2023-02-08T02:10:44.119Z,19.07
2023-02-08T02:13:15.018Z,17.23
2023-02-08T02:15:45.013Z,17.97
2023-02-08T02:18:15.491Z,17.90
2023-02-08T02:21:06.444Z,18.67
2023-02-08T02:24:18.936Z,19.80
2023-02-08T02:27:21.812Z,17.60
2023-02-08T02:30:33.758Z,19.00
2023-02-08T02:33:28.865Z,21.70
2023-02-08T02:36:03.072Z,19.30
2023-02-08T02:38:45.428Z,19.10
2023-02-08T02:41:39.292Z,16.93
2023-02-08T02:44:15.445Z,15.60
2023-02-08T02:46:51.586Z,18.43
2023-02-08T02:49:28.485Z,16.70
2023-02-08T02:52:03.192Z,18.13
2023-02-08T02:54:36.262Z,18.40
2023-02-08T02:57:08.092Z,19.60
2023-02-08T02:59:38.451Z,18.33
2023-02-08T03:02:06.727Z,16.50
2023-02-08T03:04:54.907Z,18.20
2023-02-08T03:07:38.326Z,17.47
2023-02-08T03:10:20.638Z,16.97
2023-02-08T03:12:59.697Z,19.40
2023-02-08T03:15:34.215Z,18.67
2023-02-08T03:18:12.491Z,21.10
2023-02-08T03:20:45.985Z,16.00
2023-02-08T03:23:20.785Z,20.87
2023-02-08T03:25:53.617Z,17.93
2023-02-08T03:28:26.662Z,18.17
2023-02-08T03:31:03.499Z,18.93
2023-02-08T03:33:38.920Z,17.67
2023-02-08T03:36:18.002Z,18.17
2023-02-08T03:38:48.894Z,18.10
2023-02-08T03:41:22.084Z,19.37
2023-02-08T03:43:56.702Z,21.30
2023-02-08T03:46:27.646Z,15.87
2023-02-08T03:49:00.389Z,17.23
2023-02-08T03:51:33.118Z,16.97
2023-02-08T03:54:04.879Z,18.97
2023-02-08T03:56:40.063Z,19.50
2023-02-08T03:59:14.953Z,14.80
2023-02-08T04:01:45.819Z,19.47
2023-02-08T04:04:16.420Z,17.83
2023-02-08T04:06:45.718Z,16.80
2023-02-08T04:09:13.672Z,17.10
2023-02-08T04:11:41.601Z,20.03
2023-02-08T04:14:09.506Z,23.07
2023-02-08T04:16:37.384Z,18.07
2023-02-08T04:19:05.293Z,18.37
2023-02-08T04:21:33.488Z,18.97
2023-02-08T04:24:02.880Z,18.40
2023-02-08T04:26:30.768Z,15.87
2023-02-08T04:28:58.766Z,17.10
2023-02-08T04:31:26.732Z,17.70
2023-02-08T04:33:54.703Z,18.40
2023-02-08T04:36:22.671Z,18.73
2023-02-08T04:38:50.500Z,19.73
2023-02-08T04:41:19.756Z,20.53
2023-02-08T04:43:47.781Z,21.60
2023-02-08T04:46:15.706Z,17.63
2023-02-08T04:48:43.641Z,17.50
2023-02-08T04:51:11.538Z,16.20
2023-02-08T04:53:39.395Z,21.33
2023-02-08T04:56:07.687Z,20.23
2023-02-08T04:58:36.983Z,16.67
2023-02-08T05:01:07.596Z,18.50
2023-02-08T05:03:35.809Z,20.80
2023-02-08T05:06:03.950Z,16.83
2023-02-08T05:08:31.858Z,18.40
2023-02-08T05:10:59.755Z,17.50
2023-02-08T05:13:27.665Z,19.63
2023-02-08T05:15:57.195Z,20.13
2023-02-08T05:18:25.062Z,19.47
2023-02-08T05:20:57.315Z,19.20
2023-02-08T05:23:25.389Z,21.23
2023-02-08T05:25:53.310Z,17.73
2023-02-08T05:28:21.538Z,23.93
2023-02-08T05:30:49.531Z,20.50
2023-02-08T05:33:19.244Z,24.07
2023-02-08T05:35:47.427Z,24.80
2023-02-08T05:38:15.458Z,23.03
2023-02-08T05:40:43.341Z,24.17
2023-02-08T05:43:11.283Z,20.73
2023-02-08T05:45:39.178Z,22.77
2023-02-08T05:48:07.350Z,23.20
2023-02-08T05:50:36.654Z,21.20
2023-02-08T05:53:04.558Z,21.47
2023-02-08T05:55:32.489Z,20.67
2023-02-08T05:58:00.381Z,22.37
2023-02-08T06:00:28.730Z,21.67
2023-02-08T06:02:56.704Z,20.47
2023-02-08T06:05:24.603Z,22.10
2023-02-08T06:07:53.847Z,22.50
2023-02-08T06:10:21.811Z,20.13
2023-02-08T06:12:49.662Z,19.57
2023-02-08T06:15:17.651Z,21.13
2023-02-08T06:17:45.504Z,17.37
2023-02-08T06:20:13.612Z,17.30
2023-02-08T06:22:41.593Z,19.73
2023-02-08T06:25:11.481Z,17.40
2023-02-08T06:27:39.455Z,18.80
2023-02-08T06:30:07.826Z,16.10
2023-02-08T06:32:35.783Z,18.30
2023-02-08T06:35:03.771Z,17.00
2023-02-08T06:37:31.614Z,17.50
2023-02-08T06:40:02.051Z,16.80
2023-02-08T06:42:31.439Z,15.57
2023-02-08T06:44:59.437Z,18.17
2023-02-08T06:47:28.429Z,18.93
2023-02-08T06:49:56.323Z,19.60
2023-02-08T06:52:24.343Z,19.43
2023-02-08T06:54:52.235Z,18.53
2023-02-08T06:57:20.227Z,24.97
2023-02-08T06:59:49.454Z,20.90
2023-02-08T07:02:19.724Z,25.77
2023-02-08T07:04:48.754Z,26.37
2023-02-08T07:07:17.885Z,25.10
2023-02-08T07:09:45.902Z,22.67
2023-02-08T07:12:13.888Z,25.30
2023-02-08T07:14:43.528Z,23.87
2023-02-08T07:17:13.987Z,19.33
2023-02-08T07:19:42.224Z,25.63
2023-02-08T07:22:10.304Z,30.43
2023-02-08T07:24:39.493Z,25.37
2023-02-08T07:27:08.876Z,24.87
2023-02-08T07:29:37.679Z,21.30
2023-02-08T07:32:07.272Z,21.83
2023-02-08T07:34:40.792Z,20.73
2023-02-08T07:37:09.419Z,20.27
2023-02-08T07:39:37.374Z,20.03
2023-02-08T07:42:06.256Z,18.27
2023-02-08T07:44:34.139Z,18.10
2023-02-08T07:47:02.822Z,22.60
2023-02-08T07:49:30.895Z,22.90
2023-02-08T07:52:00.364Z,22.97
2023-02-08T07:54:28.416Z,22.83
2023-02-08T07:56:56.603Z,22.17
2023-02-08T07:59:24.653Z,27.83
2023-02-08T08:01:52.678Z,23.50
2023-02-08T08:04:22.092Z,23.63
2023-02-08T08:06:51.559Z,23.37
2023-02-08T08:09:21.423Z,26.43
2023-02-08T08:11:49.321Z,22.87
2023-02-08T08:14:17.221Z,21.23
2023-02-08T08:16:45.141Z,20.30
2023-02-08T08:19:13.051Z,18.83
2023-02-08T08:21:40.910Z,18.63
2023-02-08T08:24:08.961Z,18.13
2023-02-08T08:26:38.227Z,18.83
2023-02-08T08:29:07.130Z,19.37
2023-02-08T08:31:35.094Z,18.87
2023-02-08T08:34:02.979Z,19.20
2023-02-08T08:36:31.482Z,20.63
2023-02-08T08:38:59.335Z,20.67
2023-02-08T08:41:27.399Z,20.60
2023-02-08T08:43:56.721Z,20.43
2023-02-08T08:46:24.665Z,19.83
2023-02-08T08:48:52.839Z,20.43
2023-02-08T08:51:20.873Z,20.80
2023-02-08T08:53:48.727Z,26.00
2023-02-08T08:56:16.590Z,20.97
2023-02-08T08:58:44.568Z,20.07
2023-02-08T09:01:14.471Z,20.10
2023-02-08T09:03:42.368Z,19.87
2023-02-08T09:06:10.272Z,21.00
2023-02-08T09:08:38.150Z,20.57
2023-02-08T09:11:07.300Z,21.57
2023-02-08T09:13:35.950Z,21.60
2023-02-08T09:16:09.177Z,20.83
2023-02-08T09:18:38.472Z,21.07
2023-02-08T09:21:07.590Z,22.60
2023-02-08T09:23:35.578Z,21.27
2023-02-08T09:26:04.349Z,22.50
2023-02-08T09:28:32.454Z,22.67
2023-02-08T09:31:01.742Z,31.47
2023-02-08T09:33:29.999Z,23.93
2023-02-08T09:35:59.302Z,22.63
2023-02-08T09:38:27.379Z,22.23
2023-02-08T09:41:04.553Z,20.97
2023-02-08T09:43:41.756Z,23.13
2023-02-08T09:46:16.820Z,22.90
2023-02-08T09:48:46.847Z,22.50
2023-02-08T09:51:26.636Z,23.17
2023-02-08T09:53:59.810Z,23.63
2023-02-08T09:56:31.302Z,22.10
2023-02-08T09:59:01.855Z,23.00
2023-02-08T10:01:32.516Z,23.90
2023-02-08T10:04:07.080Z,22.83
2023-02-08T10:06:36.623Z,21.93
2023-02-08T10:09:09.320Z,21.50
2023-02-08T10:11:50.937Z,23.03
2023-02-08T10:14:51.091Z,23.13
2023-02-08T10:17:40.296Z,29.57
2023-02-08T10:20:19.889Z,21.87
2023-02-08T10:23:02.774Z,21.70
2023-02-08T10:25:46.526Z,22.70
2023-02-08T10:28:33.825Z,26.00
2023-02-08T10:31:13.985Z,22.63
2023-02-08T10:33:49.106Z,24.33
2023-02-08T10:36:21.504Z,23.87
2023-02-08T10:38:54.237Z,23.13
2023-02-08T10:41:26.175Z,23.17
2023-02-08T10:44:03.040Z,20.80
2023-02-08T10:46:36.692Z,24.20
2023-02-08T10:49:11.295Z,22.03
2023-02-08T10:51:39.386Z,22.70
2023-02-08T10:54:12.859Z,25.73
2023-02-08T10:56:46.673Z,23.67
2023-02-08T10:59:20.056Z,22.40
2023-02-08T11:01:49.514Z,22.20
2023-02-08T11:04:18.452Z,21.33
2023-02-08T11:06:49.144Z,21.40
2023-02-08T11:09:27.921Z,22.13
2023-02-08T11:11:57.647Z,21.87
2023-02-08T11:14:45.390Z,22.80
2023-02-08T11:17:27.369Z,23.73
2023-02-08T11:19:55.532Z,21.77
2023-02-08T11:22:25.918Z,23.27
2023-02-08T11:25:01.862Z,27.37
2023-02-08T11:27:36.270Z,21.37
2023-02-08T11:30:22.172Z,21.67
2023-02-08T11:33:11.287Z,25.83
2023-02-08T11:35:39.326Z,21.80
2023-02-08T11:38:07.237Z,24.40
2023-02-08T11:40:39.174Z,25.30
2023-02-08T11:43:08.045Z,23.40
2023-02-08T11:45:38.337Z,23.70
2023-02-08T11:48:21.747Z,23.30
2023-02-08T11:50:55.376Z,23.23
2023-02-08T11:53:28.997Z,20.33
2023-02-08T11:56:06.964Z,20.27
2023-02-08T11:58:35.392Z,19.17
2023-02-08T12:01:06.317Z,19.80
2023-02-08T12:03:38.610Z,19.53
2023-02-08T12:06:40.524Z,19.87
2023-02-08T12:09:14.299Z,17.97
2023-02-08T12:11:45.622Z,20.17
2023-02-08T12:14:27.808Z,21.17
2023-02-08T12:17:11.388Z,18.93
2023-02-08T12:20:06.966Z,19.13
2023-02-08T12:22:39.971Z,19.70
2023-02-08T12:25:28.618Z,16.37
2023-02-08T12:28:06.733Z,15.40
2023-02-08T12:30:38.274Z,14.80
2023-02-08T12:33:33.644Z,16.33
2023-02-08T12:36:16.658Z,14.83
2023-02-08T12:39:25.708Z,20.13
2023-02-08T12:42:13.502Z,13.27
2023-02-08T12:44:55.274Z,15.97
2023-02-08T12:47:45.153Z,11.17
2023-02-08T12:50:20.954Z,10.37
2023-02-08T12:52:52.983Z,10.63
2023-02-08T12:55:25.897Z,10.37
2023-02-08T12:57:57.159Z,9.60
2023-02-08T13:00:29.626Z,8.70
2023-02-08T13:03:07.048Z,10.47
2023-02-08T13:05:41.737Z,8.87
2023-02-08T13:08:27.399Z,9.67
2023-02-08T13:11:10.737Z,9.93
2023-02-08T13:13:52.275Z,9.70
2023-02-08T13:16:25.304Z,9.20
2023-02-08T13:18:56.768Z,10.57
2023-02-08T13:21:30.599Z,9.10
2023-02-08T13:23:59.667Z,10.43
2023-02-08T13:26:31.579Z,11.57
2023-02-08T13:29:02.583Z,10.00
2023-02-08T13:31:36.192Z,9.93
2023-02-08T13:34:08.714Z,10.37
2023-02-08T13:36:39.165Z,9.87
2023-02-08T13:39:09.313Z,10.50
2023-02-08T13:41:37.915Z,11.57
2023-02-08T13:44:08.346Z,10.73
2023-02-08T13:46:45.806Z,10.13
2023-02-08T13:49:52.342Z,10.10
2023-02-08T13:52:52.048Z,11.07
2023-02-08T13:55:58.449Z,9.27
2023-02-08T13:59:04.835Z,9.30
2023-02-08T14:01:35.430Z,9.40
2023-02-08T14:04:34.788Z,10.90
2023-02-08T14:07:08.044Z,10.60
2023-02-08T14:09:58.860Z,10.70
2023-02-08T14:12:34.652Z,10.07
2023-02-08T14:15:26.373Z,12.30
2023-02-08T14:17:58.344Z,12.97
2023-02-08T14:20:34.514Z,11.47
2023-02-08T14:23:05.601Z,11.00
2023-02-08T14:25:43.516Z,12.93
2023-02-08T14:28:26.670Z,10.77
2023-02-08T14:30:57.600Z,18.30
2023-02-08T14:33:29.681Z,16.03
2023-02-08T14:36:02.571Z,15.50
2023-02-08T14:38:51.068Z,12.97
2023-02-08T14:42:01.144Z,14.23
2023-02-08T14:44:59.339Z,13.70
2023-02-08T14:48:07.595Z,15.43
2023-02-08T14:50:40.741Z,14.37
2023-02-08T14:53:22.588Z,14.40
2023-02-08T14:55:53.301Z,16.23
2023-02-08T14:58:28.810Z,16.73
2023-02-08T15:00:59.228Z,18.57
2023-02-08T15:03:31.491Z,18.00
2023-02-08T15:06:17.220Z,23.20
2023-02-08T15:08:51.009Z,20.13
2023-02-08T15:11:25.022Z,17.80
2023-02-08T15:13:55.702Z,20.90
2023-02-08T15:16:25.977Z,17.67
2023-02-08T15:18:53.910Z,18.07
2023-02-08T15:21:25.631Z,21.83
2023-02-08T15:24:04.913Z,19.73
2023-02-08T15:26:33.755Z,20.97
2023-02-08T15:29:02.088Z,20.53
2023-02-08T15:31:33.869Z,20.53
2023-02-08T15:34:03.466Z,20.17
2023-02-08T15:36:33.770Z,22.00
2023-02-08T15:39:10.997Z,21.77
2023-02-08T15:41:39.213Z,22.87
2023-02-08T15:44:18.144Z,21.17
2023-02-08T15:46:47.631Z,24.10
2023-02-08T15:49:17.423Z,23.97
2023-02-08T15:51:46.560Z,23.50
2023-02-08T15:54:19.325Z,23.73
2023-02-08T15:56:52.542Z,25.30
2023-02-08T15:59:24.027Z,22.80
2023-02-08T16:01:52.949Z,22.67
2023-02-08T16:04:21.156Z,36.80
2023-02-08T16:06:51.655Z,25.93
2023-02-08T16:09:25.288Z,28.27
2023-02-08T16:11:54.676Z,30.27
2023-02-08T16:14:29.041Z,40.63
2023-02-08T16:17:00.758Z,63.67
2023-02-08T16:19:30.902Z,43.47
2023-02-08T16:22:17.521Z,34.10
2023-02-08T16:24:47.826Z,36.30
2023-02-08T16:27:25.580Z,28.97
2023-02-08T16:29:53.945Z,35.00
2023-02-08T16:32:28.367Z,31.57
2023-02-08T16:34:56.986Z,36.90
2023-02-08T16:37:28.629Z,33.70
2023-02-08T16:39:59.408Z,30.83
2023-02-08T16:42:30.611Z,36.00
2023-02-08T16:45:17.644Z,37.07
2023-02-08T16:47:48.987Z,54.90
2023-02-08T16:50:18.962Z,44.37
2023-02-08T16:52:51.343Z,49.47
2023-02-08T16:55:23.300Z,64.13
2023-02-08T16:57:52.885Z,52.13
2023-02-08T17:00:24.482Z,33.23
2023-02-08T17:02:53.069Z,29.93
2023-02-08T17:05:23.002Z,29.90
2023-02-08T17:07:51.554Z,29.97
2023-02-08T17:10:25.716Z,33.90
2023-02-08T17:13:06.796Z,35.23
2023-02-08T17:15:41.514Z,27.20
2023-02-08T17:18:09.586Z,30.23
2023-02-08T17:20:37.633Z,36.83
2023-02-08T17:23:06.958Z,33.70
2023-02-08T17:25:36.883Z,35.87
2023-02-08T17:28:06.853Z,34.30
2023-02-08T17:30:37.194Z,35.83
2023-02-08T17:33:06.659Z,31.73
2023-02-08T17:35:37.675Z,31.57
2023-02-08T17:38:06.722Z,32.13
2023-02-08T17:40:37.851Z,28.50
2023-02-08T17:43:06.808Z,31.83
2023-02-08T17:45:38.475Z,30.47
2023-02-08T17:48:06.723Z,34.30
2023-02-08T17:50:34.878Z,32.00
2023-02-08T17:53:03.494Z,38.30
2023-02-08T17:55:31.957Z,39.43
2023-02-08T17:58:01.244Z,37.33
2023-02-08T18:00:29.114Z,37.20
2023-02-08T18:02:59.738Z,36.90
2023-02-08T18:05:29.149Z,40.27
2023-02-08T18:07:58.037Z,38.17
2023-02-08T18:10:29.085Z,39.70
2023-02-08T18:12:56.924Z,33.00
2023-02-08T18:15:26.201Z,34.13
2023-02-08T18:17:54.262Z,30.10
2023-02-08T18:20:22.198Z,26.37
2023-02-08T18:22:50.105Z,27.43
2023-02-08T18:25:19.070Z,31.87
2023-02-08T18:27:47.190Z,30.60
2023-02-08T18:30:15.559Z,31.03
2023-02-08T18:32:44.810Z,31.07
2023-02-08T18:35:12.813Z,28.73
2023-02-08T18:37:41.153Z,30.97
2023-02-08T18:40:10.588Z,43.17
2023-02-08T18:42:38.431Z,35.87
2023-02-08T18:45:07.099Z,30.47
2023-02-08T18:47:35.949Z,37.37
2023-02-08T18:50:05.851Z,35.07
2023-02-08T18:52:33.907Z,29.83
2023-02-08T18:55:02.010Z,31.60
2023-02-08T18:57:29.991Z,32.70
2023-02-08T18:59:57.867Z,35.27
2023-02-08T19:02:26.549Z,32.40
2023-02-08T19:04:54.549Z,26.40
2023-02-08T19:07:23.866Z,24.07
2023-02-08T19:09:51.846Z,23.67
2023-02-08T19:12:21.075Z,23.27
2023-02-08T19:14:51.037Z,29.00
2023-02-08T19:17:19.345Z,26.63
2023-02-08T19:19:47.671Z,26.93
2023-02-08T19:22:15.658Z,26.17
2023-02-08T19:24:44.896Z,24.93
2023-02-08T19:27:12.757Z,28.70
2023-02-08T19:29:40.695Z,31.37
2023-02-08T19:32:09.047Z,28.13
2023-02-08T19:34:36.956Z,24.03
2023-02-08T19:37:04.904Z,26.40
2023-02-08T19:39:32.871Z,23.90
2023-02-08T19:42:02.142Z,26.83
2023-02-08T19:44:30.856Z,26.83
2023-02-08T19:46:58.974Z,25.73
2023-02-08T19:49:28.527Z,30.77
2023-02-08T19:51:57.188Z,29.80
2023-02-08T19:54:28.323Z,28.50
2023-02-08T19:56:56.187Z,27.60
2023-02-08T19:59:27.573Z,28.30
2023-02-08T20:01:56.118Z,28.17
2023-02-08T20:04:24.271Z,28.37
2023-02-08T20:06:53.275Z,32.50
2023-02-08T20:09:21.391Z,30.03
2023-02-08T20:11:56.832Z,30.23
2023-02-08T20:14:29.090Z,31.40
2023-02-08T20:16:57.928Z,32.30
2023-02-08T20:19:26.747Z,33.93
2023-02-08T20:21:54.993Z,33.73
2023-02-08T20:24:24.279Z,30.47
2023-02-08T20:26:52.614Z,30.37
2023-02-08T20:29:20.500Z,32.13
2023-02-08T20:31:52.169Z,31.27
2023-02-08T20:34:20.473Z,30.00
2023-02-08T20:37:05.830Z,26.37
2023-02-08T20:39:35.900Z,23.67
2023-02-08T20:42:04.050Z,25.50
2023-02-08T20:44:32.640Z,26.07
2023-02-08T20:47:02.440Z,23.60
2023-02-08T20:49:32.218Z,22.90
2023-02-08T20:52:00.223Z,22.57
2023-02-08T20:54:28.674Z,22.33
2023-02-08T20:56:56.638Z,25.73
2023-02-08T20:59:24.760Z,24.00
2023-02-08T21:01:52.972Z,22.10
2023-02-08T21:04:23.609Z,23.23
2023-02-08T21:06:52.212Z,26.00
2023-02-08T21:09:21.106Z,23.07
2023-02-08T21:11:50.392Z,25.47
2023-02-08T21:14:20.810Z,26.53
2023-02-08T21:16:49.388Z,23.70
2023-02-08T21:19:17.631Z,24.57
2023-02-08T21:21:47.423Z,22.37
2023-02-08T21:24:15.306Z,20.20
2023-02-08T21:26:43.219Z,23.03
2023-02-08T21:29:11.230Z,22.70
2023-02-08T21:31:39.201Z,21.30
2023-02-08T21:34:07.549Z,20.63
2023-02-08T21:36:35.898Z,24.80
2023-02-08T21:39:05.762Z,26.90
2023-02-08T21:41:34.836Z,25.03
2023-02-08T21:44:04.446Z,24.27
2023-02-08T21:46:33.190Z,25.83
2023-02-08T21:49:19.509Z,25.53
2023-02-08T21:52:05.107Z,30.60
2023-02-08T21:54:53.171Z,23.27
2023-02-08T21:57:22.859Z,27.73
2023-02-08T21:59:53.459Z,28.13
2023-02-08T22:02:25.746Z,28.63
2023-02-08T22:05:12.285Z,27.23
2023-02-08T22:07:45.723Z,28.33
2023-02-08T22:10:17.145Z,30.13
2023-02-08T22:12:45.353Z,25.83
2023-02-08T22:15:15.943Z,23.90
2023-02-08T22:17:44.481Z,26.47
2023-02-08T22:20:13.644Z,26.30
2023-02-08T22:22:41.552Z,24.23
2023-02-08T22:25:10.127Z,23.03
2023-02-08T22:27:41.093Z,21.97
2023-02-08T22:30:11.101Z,22.20
2023-02-08T22:32:40.687Z,19.63
2023-02-08T22:35:09.588Z,20.63
2023-02-08T22:37:37.524Z,20.27
2023-02-08T22:40:07.731Z,18.47
2023-02-08T22:42:35.714Z,20.33
2023-02-08T22:45:07.852Z,17.97
2023-02-08T22:47:36.340Z,18.33
2023-02-08T22:50:05.221Z,17.20
2023-02-08T22:52:34.556Z,21.73
2023-02-08T22:55:04.175Z,22.13
2023-02-08T22:57:32.547Z,23.37
2023-02-08T23:00:00.435Z,24.27
2023-02-08T23:02:30.044Z,25.40
2023-02-08T23:04:57.998Z,25.20
2023-02-08T23:07:25.949Z,24.30
2023-02-08T23:09:53.888Z,25.20
2023-02-08T23:12:21.793Z,28.20
2023-02-08T23:14:49.838Z,26.20
2023-02-08T23:17:17.969Z,27.30
2023-02-08T23:19:47.320Z,30.53
2023-02-08T23:22:15.220Z,25.73
2023-02-08T23:24:43.208Z,29.67
2023-02-08T23:27:11.502Z,29.60
2023-02-08T23:29:39.398Z,30.57
2023-02-08T23:32:07.363Z,29.67
2023-02-08T23:34:37.917Z,29.73
2023-02-08T23:37:16.754Z,23.93
2023-02-08T23:39:44.753Z,24.67
2023-02-08T23:42:25.401Z,27.20
2023-02-08T23:44:53.819Z,22.63
2023-02-08T23:47:22.166Z,23.23
2023-02-08T23:49:51.112Z,24.57
2023-02-08T23:52:20.855Z,24.20
2023-02-08T23:54:49.085Z,25.37
2023-02-08T23:57:17.224Z,23.33
2023-02-08T23:59:45.165Z,22.57
